Pagina principale
METAR-TAF:

METAR-TAF

Aeroporti :

Anchorage, Alaska, Stati Uniti

latitudine: 61-11N, longitudine: 149-58W, altezza: 22 m

Osservazione

Il bollettino è stato emesso 1 ora e 3 minuti fa, alle 13:53 UTC
Vento 3 kt da sud
Temperature 11°C
Umidità 87%
Pressione 1024 hPa
Visibilità: 16.1 km
Cielo sereno

METAR: PALH 191353Z 19003KT 10SM CLR 11/09 A3025 RMK AO2 SLP245 T01110089

Ora: 06:56 (14:56 UTC)


TAF: mancante

Osservazioni e previsioni meteorologiche di più di 4000 aeroporti (messaggi METAR e TAF).

Le stazioni disponibili sono rappresentate dai dischi gialli e rossi sulla carta.

Puntare il mouse per vedere il nome della stazione.

Clicca sopra per visualizzare le osservazioni e previsioni meteorologiche.

Per cambiare la mappa : fare clic sui pulsanti verdi con una croce nera per ingrandire, il pulsante verde con un trattino per diminuire, o sulla freccia verde per le mappe adiacenti.


METAR-TAF: